Logansport, Kentucky
Current Conditions -  °F | °C
As of 1:53 PM on Sunday 21 Dec 2014 (Local Time) from KBWG Reporting Station
Clear Clear  
Wind Chill: 50°   Ceiling: Unl
Heat Index: 50°   Visibility: 10mi
Dew Point: 29°   Wind: 6mph
Humidity: 44%   Direction: 60°ENE
Pressure: 30.12"   Gusts: NA
Location:  37.1566°N, 86.7317°W
Report Text: KBWG 211953Z AUTO 06005KT 10SM CLR 10/M02 A3012 RMK AO2 SLP203 T01001017
Loading
Personal Weather Stations






























Interactive Weather Map New forecast layout! Learn more

10-Day Weather Forecast

Advertisements
Track Severe Weather on mobile